createdAt,value
2023-03-13T00:01:31.307Z,7.60
2023-03-13T00:04:02.962Z,7.70
2023-03-13T00:07:05.084Z,7.70
2023-03-13T00:09:46.116Z,7.70
2023-03-13T00:12:16.580Z,7.70
2023-03-13T00:14:47.080Z,7.70
2023-03-13T00:17:43.862Z,7.80
2023-03-13T00:20:17.725Z,7.80
2023-03-13T00:23:15.336Z,7.80
2023-03-13T00:28:32.745Z,7.70
2023-03-13T00:31:07.245Z,7.80
2023-03-13T00:33:36.990Z,7.80
2023-03-13T00:36:18.427Z,7.80
2023-03-13T00:38:50.838Z,7.80
2023-03-13T00:41:22.930Z,7.80
2023-03-13T00:44:01.844Z,7.80
2023-03-13T00:46:34.995Z,7.90
2023-03-13T00:49:12.446Z,7.90
2023-03-13T00:51:43.536Z,7.90
2023-03-13T00:54:31.912Z,7.90
2023-03-13T00:57:01.554Z,7.90
2023-03-13T00:59:33.473Z,7.90
2023-03-13T01:02:02.806Z,7.90
2023-03-13T01:04:34.966Z,7.90
2023-03-13T01:07:13.767Z,7.90
2023-03-13T01:09:51.247Z,7.90
2023-03-13T01:12:22.708Z,8.00
2023-03-13T01:14:52.493Z,8.00
2023-03-13T01:17:22.553Z,8.00
2023-03-13T01:19:57.510Z,8.00
2023-03-13T01:22:30.965Z,8.00
2023-03-13T01:25:06.717Z,8.00
2023-03-13T01:27:39.469Z,8.10
2023-03-13T01:30:10.150Z,8.10
2023-03-13T01:32:39.969Z,8.10
2023-03-13T01:35:18.654Z,8.10
2023-03-13T01:37:54.564Z,8.20
2023-03-13T01:40:43.000Z,8.20
2023-03-13T01:43:26.949Z,8.20
2023-03-13T01:46:20.072Z,8.20
2023-03-13T01:48:56.829Z,8.20
2023-03-13T01:51:30.497Z,8.20
2023-03-13T01:54:10.393Z,8.20
2023-03-13T01:56:50.920Z,8.20
2023-03-13T01:59:31.066Z,8.30
2023-03-13T02:02:06.169Z,8.30
2023-03-13T02:04:40.885Z,8.30
2023-03-13T02:07:18.798Z,8.30
2023-03-13T02:09:52.517Z,8.30
2023-03-13T02:12:31.292Z,8.30
2023-03-13T02:15:03.281Z,8.30
2023-03-13T02:17:42.169Z,8.30
2023-03-13T02:20:30.804Z,8.30
2023-03-13T02:23:08.591Z,8.30
2023-03-13T02:26:07.771Z,8.30
2023-03-13T02:28:43.361Z,8.30
2023-03-13T02:31:14.383Z,8.40
2023-03-13T02:34:07.506Z,8.40
2023-03-13T02:36:49.661Z,8.30
2023-03-13T02:39:24.360Z,8.40
2023-03-13T02:42:13.461Z,8.30
2023-03-13T02:44:46.631Z,8.30
2023-03-13T02:47:22.493Z,8.30
2023-03-13T02:50:03.490Z,8.30
2023-03-13T02:52:38.285Z,8.20
2023-03-13T02:55:11.996Z,8.20
2023-03-13T02:57:50.557Z,8.30
2023-03-13T03:00:22.370Z,8.20
2023-03-13T03:03:00.376Z,8.20
2023-03-13T03:05:31.497Z,8.20
2023-03-13T03:08:07.733Z,8.20
2023-03-13T03:10:38.312Z,8.20
2023-03-13T03:13:09.779Z,8.20
2023-03-13T03:15:41.810Z,8.20
2023-03-13T03:18:16.208Z,8.10
2023-03-13T03:21:00.224Z,8.10
2023-03-13T03:23:31.953Z,8.10
2023-03-13T03:26:11.788Z,8.10
2023-03-13T03:28:43.445Z,8.10
2023-03-13T03:31:17.792Z,8.10
2023-03-13T03:33:54.621Z,8.10
2023-03-13T03:36:25.099Z,8.00
2023-03-13T03:38:57.327Z,8.00
2023-03-13T03:41:55.230Z,8.00
2023-03-13T03:44:31.858Z,8.00
2023-03-13T03:47:09.609Z,8.00
2023-03-13T03:49:40.661Z,8.00
2023-03-13T03:52:11.093Z,8.00
2023-03-13T03:54:45.813Z,8.00
2023-03-13T03:57:18.622Z,8.00
2023-03-13T03:59:56.493Z,8.00
2023-03-13T04:05:18.481Z,8.00
2023-03-13T04:07:48.484Z,8.00
2023-03-13T04:10:18.111Z,8.00
2023-03-13T04:12:47.875Z,8.00
2023-03-13T04:15:35.185Z,8.00
2023-03-13T04:18:04.785Z,7.90
2023-03-13T04:20:38.035Z,7.90
2023-03-13T04:23:13.040Z,7.90
2023-03-13T04:25:44.034Z,7.90
2023-03-13T04:28:14.816Z,8.00
2023-03-13T04:30:54.239Z,8.00
2023-03-13T04:33:26.086Z,7.90
2023-03-13T04:35:59.565Z,8.00
2023-03-13T04:38:29.557Z,8.00
2023-03-13T04:43:43.746Z,8.00
2023-03-13T04:46:15.132Z,8.00
2023-03-13T04:48:45.094Z,8.00
2023-03-13T04:51:16.366Z,8.00
2023-03-13T04:53:52.896Z,8.00
2023-03-13T04:56:42.068Z,8.00
2023-03-13T04:59:13.563Z,8.00
2023-03-13T05:02:10.187Z,8.00
2023-03-13T05:04:45.496Z,8.00
2023-03-13T05:07:16.127Z,8.10
2023-03-13T05:09:49.514Z,8.10
2023-03-13T05:12:18.537Z,8.10
2023-03-13T05:14:59.535Z,8.10
2023-03-13T05:17:36.926Z,8.10
2023-03-13T05:20:13.799Z,8.10
2023-03-13T05:22:53.355Z,8.20
2023-03-13T05:25:31.244Z,8.20
2023-03-13T05:28:09.539Z,8.20
2023-03-13T05:30:45.473Z,8.20
2023-03-13T05:33:15.726Z,8.20
2023-03-13T05:35:55.014Z,8.20
2023-03-13T05:38:26.720Z,8.20
2023-03-13T05:40:57.675Z,8.30
2023-03-13T05:43:26.741Z,8.30
2023-03-13T05:45:57.297Z,8.30
2023-03-13T05:48:28.744Z,8.30
2023-03-13T05:50:57.916Z,8.30
2023-03-13T05:53:27.796Z,8.30
2023-03-13T05:56:04.474Z,8.40
2023-03-13T06:01:19.893Z,8.40
2023-03-13T06:04:07.297Z,8.40
2023-03-13T06:06:39.769Z,8.40
2023-03-13T06:09:14.378Z,8.40
2023-03-13T06:11:44.130Z,8.40
2023-03-13T06:14:13.613Z,8.50
2023-03-13T06:16:45.628Z,8.50
2023-03-13T06:19:17.878Z,8.50
2023-03-13T06:22:04.400Z,8.50
2023-03-13T06:24:34.813Z,8.50
2023-03-13T06:27:06.747Z,8.50
2023-03-13T06:29:37.719Z,8.60
2023-03-13T06:32:06.944Z,8.60
2023-03-13T06:34:37.859Z,8.60
2023-03-13T06:37:09.435Z,8.60
2023-03-13T06:39:39.515Z,8.60
2023-03-13T06:42:12.171Z,8.60
2023-03-13T06:44:42.747Z,8.70
2023-03-13T06:47:15.537Z,8.70
2023-03-13T06:49:52.788Z,8.80
2023-03-13T06:52:26.440Z,8.80
2023-03-13T06:55:01.650Z,8.90
2023-03-13T06:57:33.712Z,8.90
2023-03-13T07:00:02.593Z,9.00
2023-03-13T07:02:32.795Z,9.00
2023-03-13T07:05:10.306Z,9.10
2023-03-13T07:07:40.501Z,9.10
2023-03-13T07:10:11.213Z,9.20
2023-03-13T07:12:44.553Z,9.20
2023-03-13T07:15:14.315Z,9.30
2023-03-13T07:17:44.166Z,9.40
2023-03-13T07:20:19.653Z,9.40
2023-03-13T07:22:56.179Z,9.40
2023-03-13T07:25:30.582Z,9.50
2023-03-13T07:28:01.817Z,9.60
2023-03-13T07:30:34.331Z,9.60
2023-03-13T07:33:02.928Z,9.70
2023-03-13T07:35:34.361Z,9.70
2023-03-13T07:38:05.616Z,9.70
2023-03-13T07:40:35.300Z,9.70
2023-03-13T07:43:05.149Z,9.80
2023-03-13T07:45:35.430Z,9.80
2023-03-13T07:48:07.210Z,9.80
2023-03-13T07:50:38.196Z,9.80
2023-03-13T07:53:08.954Z,9.90
2023-03-13T07:55:40.607Z,9.90
2023-03-13T07:58:15.456Z,9.90
2023-03-13T08:00:46.991Z,10.00
2023-03-13T08:03:18.999Z,10.00
2023-03-13T08:06:00.271Z,10.10
2023-03-13T08:08:30.521Z,10.10
2023-03-13T08:11:05.209Z,10.20
2023-03-13T08:13:37.215Z,10.20
2023-03-13T08:16:15.899Z,10.30
2023-03-13T08:18:47.825Z,10.30
2023-03-13T08:21:21.018Z,10.30
2023-03-13T08:23:59.450Z,10.40
2023-03-13T08:26:29.506Z,10.40
2023-03-13T08:29:02.981Z,10.40
2023-03-13T08:31:36.161Z,10.50
2023-03-13T08:34:09.879Z,10.50
2023-03-13T08:36:46.569Z,10.50
2023-03-13T08:39:23.238Z,10.60
2023-03-13T08:41:57.470Z,10.60
2023-03-13T08:44:34.323Z,10.70
2023-03-13T08:47:08.894Z,10.80
2023-03-13T08:49:42.772Z,10.90
2023-03-13T08:52:24.424Z,10.90
2023-03-13T08:54:59.305Z,11.00
2023-03-13T08:57:30.462Z,11.10
2023-03-13T09:00:03.058Z,11.10
2023-03-13T09:02:35.732Z,11.10
2023-03-13T09:05:29.326Z,11.10
2023-03-13T09:08:23.345Z,11.20
2023-03-13T09:11:01.101Z,11.20
2023-03-13T09:13:35.609Z,11.30
2023-03-13T09:16:06.162Z,11.30
2023-03-13T09:18:39.089Z,11.40
2023-03-13T09:21:16.828Z,11.40
2023-03-13T09:23:49.003Z,11.40
2023-03-13T09:26:22.753Z,11.30
2023-03-13T09:28:56.413Z,11.40
2023-03-13T09:31:34.088Z,11.40
2023-03-13T09:34:03.486Z,11.40
2023-03-13T09:36:35.313Z,11.40
2023-03-13T09:39:09.874Z,11.40
2023-03-13T09:41:47.166Z,11.40
2023-03-13T09:44:21.567Z,11.40
2023-03-13T09:47:05.974Z,11.40
2023-03-13T09:49:40.480Z,11.40
2023-03-13T09:52:17.887Z,11.40
2023-03-13T09:54:58.670Z,11.50
2023-03-13T09:57:35.768Z,11.40
2023-03-13T10:00:39.922Z,11.50
2023-03-13T10:03:42.779Z,11.50
2023-03-13T10:06:24.855Z,11.50
2023-03-13T10:09:01.574Z,11.60
2023-03-13T10:11:46.084Z,11.70
2023-03-13T10:14:22.412Z,11.70
2023-03-13T10:17:02.772Z,12.20
2023-03-13T10:19:37.937Z,12.30
2023-03-13T10:22:46.722Z,12.30
2023-03-13T10:25:41.108Z,12.40
2023-03-13T10:28:19.699Z,12.50
2023-03-13T10:30:54.737Z,12.50
2023-03-13T10:33:30.877Z,12.60
2023-03-13T10:36:12.752Z,12.60
2023-03-13T10:38:53.831Z,12.60
2023-03-13T10:41:33.337Z,12.60
2023-03-13T10:44:23.079Z,12.70
2023-03-13T10:47:01.107Z,12.70
2023-03-13T10:49:31.440Z,12.80
2023-03-13T10:52:01.990Z,12.90
2023-03-13T10:54:32.501Z,13.10
2023-03-13T10:57:30.100Z,14.50
2023-03-13T11:00:37.597Z,16.30
2023-03-13T11:03:19.348Z,17.60
2023-03-13T11:05:57.936Z,18.40
2023-03-13T11:08:53.599Z,19.80
2023-03-13T11:11:33.033Z,19.80
2023-03-13T11:14:18.244Z,18.50
2023-03-13T11:17:11.148Z,17.20
2023-03-13T11:20:08.501Z,16.30
2023-03-13T11:23:06.645Z,15.90
2023-03-13T11:25:43.962Z,15.80
2023-03-13T11:29:01.201Z,16.20
2023-03-13T11:32:01.905Z,16.70
2023-03-13T11:34:43.250Z,16.50
2023-03-13T11:37:41.978Z,16.30
2023-03-13T11:40:28.944Z,15.50
2023-03-13T11:43:41.077Z,15.10
2023-03-13T11:46:27.357Z,14.80
2023-03-13T11:49:41.692Z,14.60
2023-03-13T11:52:24.520Z,14.70
2023-03-13T11:55:15.530Z,14.80
2023-03-13T11:57:59.182Z,15.00
2023-03-13T12:00:38.626Z,15.20
2023-03-13T12:03:28.245Z,15.40
2023-03-13T12:06:13.203Z,15.40
2023-03-13T12:09:16.241Z,15.50
2023-03-13T12:12:17.036Z,16.00
2023-03-13T12:14:52.741Z,16.70
2023-03-13T12:17:40.614Z,17.00
2023-03-13T12:20:45.503Z,16.70
2023-03-13T12:23:27.742Z,16.60
2023-03-13T12:26:08.851Z,16.90
2023-03-13T12:29:04.887Z,17.10
2023-03-13T12:31:42.140Z,16.80
2023-03-13T12:34:21.295Z,16.70
2023-03-13T12:37:01.329Z,16.90
2023-03-13T12:39:40.842Z,16.90
2023-03-13T12:42:36.869Z,16.90
2023-03-13T12:45:09.255Z,17.50
2023-03-13T12:48:12.546Z,17.90
2023-03-13T12:51:02.602Z,18.10
2023-03-13T12:54:18.408Z,18.10
2023-03-13T12:57:18.924Z,18.10
2023-03-13T12:59:55.434Z,18.00
2023-03-13T13:02:29.121Z,18.00
2023-03-13T13:05:02.848Z,17.70
2023-03-13T13:07:41.086Z,17.50
2023-03-13T13:10:41.648Z,18.00
2023-03-13T13:17:38.653Z,19.90
2023-03-13T13:20:48.770Z,19.40
2023-03-13T13:23:42.197Z,18.80
2023-03-13T13:26:49.036Z,19.30
2023-03-13T13:30:03.900Z,19.40
2023-03-13T13:32:57.747Z,18.90
2023-03-13T13:35:42.722Z,18.10
2023-03-13T13:38:43.373Z,17.60
2023-03-13T13:41:37.933Z,17.20
2023-03-13T13:44:31.783Z,16.90
2023-03-13T13:47:02.296Z,16.70
2023-03-13T13:49:44.329Z,16.50
2023-03-13T13:52:39.153Z,16.60
2023-03-13T13:55:45.365Z,16.40
2023-03-13T13:58:22.282Z,16.30
2023-03-13T14:01:00.593Z,16.10
2023-03-13T14:03:44.395Z,16.00
2023-03-13T14:06:24.398Z,16.00
2023-03-13T14:08:58.262Z,16.00
2023-03-13T14:11:33.317Z,16.00
2023-03-13T14:14:15.856Z,16.30
2023-03-13T14:16:54.073Z,16.40
2023-03-13T14:19:28.080Z,17.00
2023-03-13T14:22:18.751Z,17.70
2023-03-13T14:25:02.880Z,17.30
2023-03-13T14:27:33.870Z,16.90
2023-03-13T14:30:11.224Z,16.60
2023-03-13T14:32:41.115Z,16.60
2023-03-13T14:35:20.947Z,16.60
2023-03-13T14:38:05.522Z,16.90
2023-03-13T14:40:44.022Z,17.40
2023-03-13T14:43:22.737Z,17.10
2023-03-13T14:45:54.205Z,16.80
2023-03-13T14:48:28.423Z,16.60
2023-03-13T14:51:15.138Z,16.50
2023-03-13T14:54:02.715Z,16.90
2023-03-13T14:56:48.355Z,17.40
2023-03-13T14:59:22.802Z,17.60
2023-03-13T15:02:06.911Z,17.80
2023-03-13T15:05:22.215Z,18.10
2023-03-13T15:07:59.078Z,18.20
2023-03-13T15:10:38.137Z,18.40
2023-03-13T15:13:17.396Z,18.50
2023-03-13T15:16:18.695Z,18.70
2023-03-13T15:18:56.407Z,18.70
2023-03-13T15:21:39.983Z,18.70
2023-03-13T15:24:18.537Z,18.70
2023-03-13T15:26:52.764Z,18.60
2023-03-13T15:29:49.129Z,18.50
2023-03-13T15:32:30.991Z,18.50
2023-03-13T15:35:03.901Z,18.50
2023-03-13T15:37:39.636Z,18.20
2023-03-13T15:40:19.687Z,17.70
2023-03-13T15:42:56.522Z,17.10
2023-03-13T15:45:30.191Z,16.70
2023-03-13T15:48:02.173Z,16.40
2023-03-13T15:50:32.051Z,16.20
2023-03-13T15:53:11.436Z,16.10
2023-03-13T15:55:45.897Z,15.90
2023-03-13T15:58:19.989Z,15.70
2023-03-13T16:00:51.208Z,15.60
2023-03-13T16:03:25.552Z,15.60
2023-03-13T16:05:56.944Z,15.40
2023-03-13T16:08:39.650Z,15.40
2023-03-13T16:11:20.419Z,15.30
2023-03-13T16:13:51.460Z,15.20
2023-03-13T16:16:25.251Z,15.10
2023-03-13T16:18:58.392Z,15.00
2023-03-13T16:21:28.605Z,14.80
2023-03-13T16:24:06.938Z,14.70
2023-03-13T16:26:38.071Z,14.60
2023-03-13T16:29:18.659Z,14.60
2023-03-13T16:31:48.148Z,14.50
2023-03-13T16:34:18.888Z,14.50
2023-03-13T16:36:52.349Z,14.50
2023-03-13T16:39:31.693Z,14.40
2023-03-13T16:42:09.598Z,14.40
2023-03-13T16:44:49.158Z,14.20
2023-03-13T16:47:46.407Z,14.10
2023-03-13T16:50:29.891Z,14.00
2023-03-13T16:53:05.012Z,14.00
2023-03-13T16:55:39.046Z,13.90
2023-03-13T16:58:40.669Z,13.80
2023-03-13T17:01:42.090Z,13.80
2023-03-13T17:04:16.637Z,13.80
2023-03-13T17:07:12.956Z,13.70
2023-03-13T17:10:25.959Z,13.60
2023-03-13T17:13:06.816Z,13.50
2023-03-13T17:15:43.883Z,13.50
2023-03-13T17:18:16.636Z,13.40
2023-03-13T17:20:55.446Z,13.30
2023-03-13T17:23:37.101Z,13.30
2023-03-13T17:26:25.753Z,13.30
2023-03-13T17:28:57.244Z,13.20
2023-03-13T17:31:33.519Z,13.20
2023-03-13T17:34:10.883Z,13.20
2023-03-13T17:36:43.036Z,13.20
2023-03-13T17:39:18.237Z,13.20
2023-03-13T17:41:57.727Z,13.30
2023-03-13T17:44:31.525Z,13.30
2023-03-13T17:47:01.756Z,13.30
2023-03-13T17:49:40.009Z,13.30
2023-03-13T17:52:12.299Z,13.40
2023-03-13T17:54:45.528Z,13.40
2023-03-13T17:57:25.386Z,13.40
2023-03-13T17:59:58.913Z,13.30
2023-03-13T18:02:31.016Z,13.40
2023-03-13T18:05:10.237Z,13.40
2023-03-13T18:07:48.112Z,13.40
2023-03-13T18:10:26.841Z,13.30
2023-03-13T18:13:05.817Z,13.30
2023-03-13T18:15:51.844Z,13.30
2023-03-13T18:18:34.700Z,13.30
2023-03-13T18:21:09.040Z,13.30
2023-03-13T18:23:40.133Z,13.30
2023-03-13T18:26:27.943Z,13.20
2023-03-13T18:29:08.424Z,13.10
2023-03-13T18:31:43.596Z,13.10
2023-03-13T18:34:24.958Z,13.00
2023-03-13T18:37:03.970Z,13.00
2023-03-13T18:39:45.906Z,12.90
2023-03-13T18:42:18.443Z,12.90
2023-03-13T18:44:50.364Z,12.90
2023-03-13T18:47:23.561Z,12.80
2023-03-13T18:49:54.438Z,12.80
2023-03-13T18:52:30.342Z,12.70
2023-03-13T18:55:04.915Z,12.70
2023-03-13T18:57:35.914Z,12.60
2023-03-13T19:00:23.001Z,12.60
2023-03-13T19:02:55.577Z,12.60
2023-03-13T19:05:30.122Z,12.50
2023-03-13T19:08:02.096Z,12.50
2023-03-13T19:10:40.764Z,12.50
2023-03-13T19:13:20.917Z,12.50
2023-03-13T19:15:51.934Z,12.50
2023-03-13T19:18:23.885Z,12.60
2023-03-13T19:20:55.033Z,12.60
2023-03-13T19:23:28.190Z,12.60
2023-03-13T19:25:58.110Z,12.50
2023-03-13T19:28:30.501Z,12.50
2023-03-13T19:31:12.976Z,12.40
2023-03-13T19:33:44.426Z,12.40
2023-03-13T19:36:18.828Z,12.30
2023-03-13T19:38:56.695Z,12.30
2023-03-13T19:41:29.807Z,12.20
2023-03-13T19:44:08.494Z,12.20
2023-03-13T19:46:55.661Z,12.20
2023-03-13T19:49:27.784Z,12.10
2023-03-13T19:51:59.282Z,12.10
2023-03-13T19:54:31.022Z,12.10
2023-03-13T19:57:04.755Z,12.10
2023-03-13T19:59:36.502Z,12.00
2023-03-13T20:02:07.212Z,12.00
2023-03-13T20:04:48.832Z,12.00
2023-03-13T20:07:19.622Z,12.00
2023-03-13T20:09:52.784Z,12.00
2023-03-13T20:12:31.787Z,11.90
2023-03-13T20:15:03.363Z,12.00
2023-03-13T20:17:35.036Z,11.90
2023-03-13T20:20:10.786Z,11.90
2023-03-13T20:22:42.765Z,11.90
2023-03-13T20:25:17.219Z,11.90
2023-03-13T20:27:47.588Z,11.90
2023-03-13T20:30:27.187Z,11.90
2023-03-13T20:33:01.122Z,11.80
2023-03-13T20:35:32.207Z,11.80
2023-03-13T20:38:13.441Z,11.80
2023-03-13T20:40:55.153Z,11.80
2023-03-13T20:43:42.194Z,11.70
2023-03-13T20:46:13.410Z,11.70
2023-03-13T20:48:59.107Z,11.70
2023-03-13T20:51:29.600Z,11.70
2023-03-13T20:54:03.504Z,11.60
2023-03-13T20:56:43.776Z,11.60
2023-03-13T20:59:14.175Z,11.60
2023-03-13T21:01:51.729Z,11.60
2023-03-13T21:04:30.838Z,11.60
2023-03-13T21:07:05.890Z,11.70
2023-03-13T21:09:37.026Z,11.60
2023-03-13T21:12:11.171Z,11.50
2023-03-13T21:14:41.445Z,11.50
2023-03-13T21:17:15.908Z,11.50
2023-03-13T21:19:57.928Z,11.50
2023-03-13T21:22:35.933Z,11.50
2023-03-13T21:25:12.946Z,11.40
2023-03-13T21:27:57.102Z,11.40
2023-03-13T21:30:29.539Z,11.50
2023-03-13T21:33:00.924Z,11.50
2023-03-13T21:35:34.118Z,11.60
2023-03-13T21:38:06.245Z,11.70
2023-03-13T21:40:38.092Z,11.70
2023-03-13T21:43:29.344Z,11.70
2023-03-13T21:46:13.614Z,11.60
2023-03-13T21:51:13.807Z,11.60
2023-03-13T21:53:54.803Z,11.60
2023-03-13T21:56:31.646Z,11.60
2023-03-13T21:59:07.348Z,11.60
2023-03-13T22:01:40.041Z,11.70
2023-03-13T22:04:09.142Z,11.70
2023-03-13T22:06:43.400Z,11.70
2023-03-13T22:09:27.778Z,11.70
2023-03-13T22:11:58.381Z,11.70
2023-03-13T22:14:31.772Z,11.70
2023-03-13T22:17:05.085Z,11.70
2023-03-13T22:19:40.929Z,11.70
2023-03-13T22:22:16.544Z,11.60
2023-03-13T22:24:48.273Z,11.60
2023-03-13T22:27:19.587Z,11.50
2023-03-13T22:29:55.240Z,11.50
2023-03-13T22:32:24.665Z,11.50
2023-03-13T22:35:00.812Z,11.40
2023-03-13T22:37:34.326Z,11.40
2023-03-13T22:40:04.525Z,11.40
2023-03-13T22:42:40.651Z,11.30
2023-03-13T22:45:19.119Z,11.30
2023-03-13T22:47:49.184Z,11.30
2023-03-13T22:50:29.156Z,11.30
2023-03-13T22:53:03.107Z,11.20
2023-03-13T22:55:33.942Z,11.20
2023-03-13T22:58:05.536Z,11.20
2023-03-13T23:00:40.179Z,11.10
2023-03-13T23:03:19.672Z,11.00
2023-03-13T23:05:58.485Z,10.90
2023-03-13T23:08:39.280Z,10.90
2023-03-13T23:11:19.905Z,10.80
2023-03-13T23:14:03.483Z,10.80
2023-03-13T23:16:43.174Z,10.80
2023-03-13T23:19:41.063Z,10.70
2023-03-13T23:22:13.134Z,10.70
2023-03-13T23:24:44.694Z,10.70
2023-03-13T23:27:15.285Z,10.70
2023-03-13T23:30:14.001Z,10.60
2023-03-13T23:36:15.000Z,10.50
2023-03-13T23:38:53.991Z,10.50
2023-03-13T23:44:07.708Z,10.50
2023-03-13T23:49:32.103Z,10.60
2023-03-13T23:52:03.535Z,10.60
2023-03-13T23:54:36.772Z,10.60
2023-03-13T23:57:12.663Z,10.60
2023-03-13T23:59:44.203Z,10.70
